Time;durP1;ratioP1;P1;durP2;ratioP2;P2;SDS_P1;SDS_P2;PMS_P1;PMS_P2;Temp;Humidity;BMP_temperature;BMP_pressure;BME280_temperature;BME280_humidity;BME280_pressure;Samples;Min_cycle;Max_cycle;Signal;HPM_P1;HPM_P2
2023/02/15 00:02:07;;;;;;;88.72;13.05;;;;;;;5.90;100.00;97739.81;5099766;27;20072;-49
2023/02/15 00:04:48;;;;;;;59.78;11.98;;;;;;;4.90;100.00;97741.63;5107217;27;20086;-48
2023/02/15 00:07:20;;;;;;;71.05;13.68;;;;;;;4.74;100.00;97745.94;5105411;27;20083;-51
2023/02/15 00:09:48;;;;;;;67.97;12.57;;;;;;;5.24;100.00;97737.28;5095424;28;20519;-49
2023/02/15 00:12:17;;;;;;;58.85;11.90;;;;;;;4.75;100.00;97745.88;5096886;27;20061;-53
2023/02/15 00:14:45;;;;;;;65.18;12.88;;;;;;;4.40;100.00;97742.34;5098103;28;20078;-42
2023/02/15 00:17:14;;;;;;;76.75;12.02;;;;;;;4.11;100.00;97749.00;5099473;28;20090;-45
2023/02/15 00:19:42;;;;;;;84.93;12.80;;;;;;;3.86;100.00;97751.94;5100194;27;20079;-49
2023/02/15 00:22:10;;;;;;;44.17;11.77;;;;;;;5.34;100.00;97733.25;5099545;27;20079;-50
2023/02/15 00:24:40;;;;;;;126.57;15.82;;;;;;;4.13;100.00;97748.91;5098701;28;20072;-42
2023/02/15 00:27:08;;;;;;;39.72;11.55;;;;;;;4.22;100.00;97738.88;5101538;27;20475;-46
2023/02/15 00:29:37;;;;;;;80.95;13.63;;;;;;;3.74;100.00;97745.50;5105252;27;20083;-46
2023/02/15 00:32:05;;;;;;;121.50;16.20;;;;;;;4.07;100.00;97739.63;5099029;27;20083;-49
2023/02/15 00:34:34;;;;;;;102.03;17.48;;;;;;;4.37;100.00;97733.84;5104346;27;20539;-49
2023/02/15 00:37:02;;;;;;;91.15;12.45;;;;;;;4.75;100.00;97735.41;5095196;27;20084;-51
2023/02/15 00:39:30;;;;;;;50.30;11.25;;;;;;;4.90;100.00;97725.94;5096502;28;20079;-50
2023/02/15 00:42:00;;;;;;;79.72;14.25;;;;;;;5.37;100.00;97720.03;5100342;27;21749;-46
2023/02/15 00:44:28;;;;;;;73.63;13.67;;;;;;;5.02;100.00;97715.78;5100766;27;20083;-46
2023/02/15 00:46:56;;;;;;;76.38;15.13;;;;;;;4.59;100.00;97720.56;5101600;27;20082;-49
2023/02/15 00:49:25;;;;;;;35.65;12.05;;;;;;;5.06;100.00;97720.78;5097480;27;20531;-48
2023/02/15 00:51:53;;;;;;;102.95;15.30;;;;;;;4.94;100.00;97722.25;5100130;27;20164;-46
2023/02/15 00:54:21;;;;;;;58.55;13.70;;;;;;;4.80;100.00;97724.72;5098576;27;20098;-53
2023/02/15 00:56:49;;;;;;;52.10;13.30;;;;;;;3.97;100.00;97720.94;5103995;27;20075;-46
2023/02/15 00:59:19;;;;;;;69.70;15.75;;;;;;;4.09;100.00;97716.88;5096187;28;20082;-51
2023/02/15 01:01:47;;;;;;;74.63;15.77;;;;;;;4.05;100.00;97718.81;5102175;27;20071;-45
2023/02/15 01:04:16;;;;;;;46.95;12.60;;;;;;;4.19;100.00;97715.53;5092503;27;20076;-46
2023/02/15 01:06:44;;;;;;;51.90;12.73;;;;;;;3.73;100.00;97717.72;5097378;27;20550;-49
2023/02/15 01:09:13;;;;;;;82.38;13.90;;;;;;;3.78;100.00;97714.88;5094343;27;20086;-49
2023/02/15 01:11:41;;;;;;;82.63;16.95;;;;;;;3.87;100.00;97711.84;5098014;27;20485;-51
2023/02/15 01:14:10;;;;;;;64.93;14.13;;;;;;;4.13;100.00;97708.00;5101343;27;20146;-46
2023/02/15 01:16:40;;;;;;;62.63;13.27;;;;;;;3.79;100.00;97711.38;5096010;27;20808;-44
2023/02/15 01:19:08;;;;;;;65.90;13.50;;;;;;;4.12;100.00;97708.06;5101914;27;20087;-50
2023/02/15 01:21:36;;;;;;;51.58;12.88;;;;;;;3.45;100.00;97710.31;5096448;27;20502;-48
2023/02/15 01:24:05;;;;;;;67.57;14.65;;;;;;;3.43;100.00;97719.13;5094285;27;20083;-46
2023/02/15 01:26:33;;;;;;;38.03;12.05;;;;;;;3.91;100.00;97702.97;5101790;27;20075;-46
2023/02/15 01:29:01;;;;;;;137.98;19.00;;;;;;;3.45;100.00;97694.69;5096880;27;21454;-42
2023/02/15 01:31:29;;;;;;;50.35;12.80;;;;;;;3.94;100.00;97689.78;5099110;27;20068;-49
2023/02/15 01:33:59;;;;;;;70.07;14.48;;;;;;;3.99;100.00;97686.94;5106082;27;20088;-47
2023/02/15 01:36:28;;;;;;;51.60;13.23;;;;;;;5.18;100.00;97686.13;5097529;27;20718;-47
2023/02/15 01:38:56;;;;;;;67.38;13.50;;;;;;;4.11;100.00;97677.69;5098266;27;20086;-49
2023/02/15 01:41:25;;;;;;;58.80;13.02;;;;;;;4.04;100.00;97688.41;5098001;27;20106;-47
2023/02/15 01:43:56;;;;;;;57.17;14.27;;;;;;;4.74;100.00;97675.38;5103726;27;20554;-44
2023/02/15 01:46:28;;;;;;;70.43;15.57;;;;;;;5.14;100.00;97670.69;5100703;27;21023;-44
2023/02/15 01:49:03;;;;;;;65.05;14.25;;;;;;;4.50;100.00;97667.84;5096576;27;21771;-50
2023/02/15 01:51:34;;;;;;;124.97;18.55;;;;;;;4.06;100.00;97662.25;5097899;27;20081;-49
2023/02/15 01:54:07;;;;;;;61.72;13.95;;;;;;;4.15;100.00;97659.16;5103829;27;20044;-45
2023/02/15 01:56:37;;;;;;;74.57;16.67;;;;;;;4.57;100.00;97662.31;5094980;27;20142;-46
2023/02/15 01:59:09;;;;;;;45.47;13.23;;;;;;;4.22;100.00;97657.94;5102799;27;20075;-51
2023/02/15 02:01:38;;;;;;;43.70;14.25;;;;;;;4.21;100.00;97655.41;5089842;28;20075;-52
2023/02/15 02:04:12;;;;;;;42.58;13.63;;;;;;;4.47;100.00;97651.50;5096088;28;20080;-45
2023/02/15 02:06:41;;;;;;;71.28;15.15;;;;;;;4.04;100.00;97659.69;5107633;27;20068;-52
2023/02/15 02:09:10;;;;;;;83.22;15.63;;;;;;;4.43;100.00;97648.19;5099364;27;20068;-44
2023/02/15 02:11:39;;;;;;;30.88;11.32;;;;;;;3.76;100.00;97646.31;5096594;27;20083;-48
2023/02/15 02:14:08;;;;;;;39.80;13.55;;;;;;;4.44;100.00;97635.97;5096360;27;20108;-50
2023/02/15 02:16:43;;;;;;;56.38;14.50;;;;;;;4.51;100.00;97638.22;5095996;28;20091;-49
2023/02/15 02:19:28;;;;;;;39.00;13.10;;;;;;;3.67;100.00;97641.50;5099000;28;20105;-48
2023/02/15 02:22:14;;;;;;;39.15;12.82;;;;;;;3.31;100.00;97650.16;5096352;27;20071;-45
2023/02/15 02:25:12;;;;;;;46.00;14.80;;;;;;;3.52;100.00;97653.53;5094169;27;20075;-49
2023/02/15 02:27:42;;;;;;;37.92;13.18;;;;;;;3.97;100.00;97645.25;5098602;27;20082;-46
2023/02/15 02:30:42;;;;;;;40.35;13.55;;;;;;;4.22;100.00;97646.66;5098173;27;20072;-48
2023/02/15 02:33:48;;;;;;;40.70;14.65;;;;;;;4.32;100.00;97645.28;5097730;27;20078;-47
2023/02/15 02:36:22;;;;;;;36.08;11.95;;;;;;;3.82;100.00;97646.00;5094575;28;20074;-51
2023/02/15 02:39:04;;;;;;;46.38;14.32;;;;;;;3.86;100.00;97649.31;5095269;27;20490;-48
2023/02/15 02:41:39;;;;;;;46.90;12.27;;;;;;;3.64;100.00;97646.88;5094997;27;20484;-51
2023/02/15 02:44:13;;;;;;;54.65;13.63;;;;;;;4.26;100.00;97633.38;5094508;28;20496;-46
2023/02/15 02:46:48;;;;;;;38.70;13.68;;;;;;;4.24;100.00;97637.00;5095018;28;20082;-49
2023/02/15 02:49:17;;;;;;;69.57;14.50;;;;;;;3.79;100.00;97635.72;5099844;27;20072;-46
2023/02/15 02:51:46;;;;;;;36.15;11.13;;;;;;;3.36;100.00;97648.16;5102096;27;20098;-51
2023/02/15 02:54:14;;;;;;;48.85;11.40;;;;;;;3.48;100.00;97644.16;5103961;27;20503;-50
2023/02/15 02:56:44;;;;;;;39.25;8.75;;;;;;;3.89;100.00;97631.75;5094446;28;20487;-49
2023/02/15 02:59:17;;;;;;;58.03;13.23;;;;;;;5.16;100.00;97619.13;5098646;28;20059;-47
2023/02/15 03:01:48;;;;;;;24.90;10.82;;;;;;;5.34;100.00;97620.78;5110692;27;20440;-46
2023/02/15 03:04:20;;;;;;;41.50;11.10;;;;;;;5.12;100.00;97628.91;5094973;27;20071;-49
2023/02/15 03:06:51;;;;;;;36.13;11.35;;;;;;;5.08;100.00;97626.56;5095034;27;20080;-47
2023/02/15 03:09:24;;;;;;;31.77;10.13;;;;;;;5.53;100.00;97625.00;5099550;28;20064;-50
2023/02/15 03:11:53;;;;;;;40.75;10.35;;;;;;;5.53;100.00;97630.22;5096298;28;20082;-53
2023/02/15 03:14:21;;;;;;;58.22;12.10;;;;;;;5.36;100.00;97633.75;5096202;28;20079;-49
2023/02/15 03:16:51;;;;;;;57.15;11.57;;;;;;;4.88;100.00;97625.84;5098457;28;20082;-47
2023/02/15 03:19:24;;;;;;;43.95;11.82;;;;;;;4.53;100.00;97628.50;5106477;28;20529;-47
2023/02/15 03:22:03;;;;;;;43.92;11.75;;;;;;;4.65;100.00;97623.59;5092261;28;20796;-50
2023/02/15 03:24:37;;;;;;;72.55;13.40;;;;;;;4.88;100.00;97625.00;5102919;28;20075;-49
2023/02/15 03:27:08;;;;;;;59.20;12.18;;;;;;;5.18;100.00;97625.16;5095064;28;20071;-51
2023/02/15 03:29:37;;;;;;;43.28;11.38;;;;;;;5.32;100.00;97625.25;5091949;28;20097;-49
2023/02/15 03:32:08;;;;;;;27.58;12.02;;;;;;;5.70;100.00;97614.44;5098545;28;20074;-51
2023/02/15 03:34:38;;;;;;;43.60;13.00;;;;;;;5.86;100.00;97620.50;5098724;28;20080;-43
2023/02/15 03:37:12;;;;;;;52.05;13.85;;;;;;;5.52;100.00;97616.31;5101513;28;20083;-51
2023/02/15 03:39:44;;;;;;;43.15;12.70;;;;;;;5.62;100.00;97616.66;5102304;27;20074;-50
2023/02/15 03:42:16;;;;;;;49.85;11.60;;;;;;;5.92;100.00;97617.56;5099666;28;20079;-47
2023/02/15 03:44:50;;;;;;;36.95;12.27;;;;;;;6.02;100.00;97622.25;5097856;28;20078;-47
2023/02/15 03:47:20;;;;;;;30.20;11.90;;;;;;;5.64;100.00;97633.09;5097274;28;20074;-48
2023/02/15 03:49:54;;;;;;;35.85;11.43;;;;;;;6.13;100.00;97631.22;5097333;28;20063;-47
2023/02/15 03:52:24;;;;;;;49.33;11.95;;;;;;;5.76;100.00;97626.34;5099785;28;20082;-45
2023/02/15 03:54:53;;;;;;;44.28;11.63;;;;;;;5.91;100.00;97623.69;5107065;28;20087;-46
2023/02/15 04:03:19;;;;;;;42.97;11.98;;;;;;;6.01;100.00;97625.81;5093361;28;20204;-46
2023/02/15 04:05:49;;;;;;;35.83;10.93;;;;;;;6.17;100.00;97624.00;5095890;28;20084;-48
2023/02/15 04:08:18;;;;;;;58.33;11.95;;;;;;;6.06;100.00;97621.19;5097121;28;20796;-47
2023/02/15 04:10:55;;;;;;;49.97;12.45;;;;;;;5.68;100.00;97632.00;5097338;28;20461;-46
2023/02/15 04:13:30;;;;;;;50.78;11.43;;;;;;;5.57;100.00;97634.34;5100617;27;20086;-51
2023/02/15 04:16:03;;;;;;;36.15;9.23;;;;;;;5.52;100.00;97629.38;5101669;27;20084;-49
2023/02/15 04:26:55;;;;;;;46.10;11.25;;;;;;;5.26;100.00;97624.72;5109932;27;20075;-46
2023/02/15 04:29:25;;;;;;;36.42;10.70;;;;;;;4.51;100.00;97625.16;5097516;27;20113;-49
2023/02/15 04:31:54;;;;;;;33.97;11.60;;;;;;;4.85;100.00;97628.66;5097988;27;20090;-46
2023/02/15 04:34:22;;;;;;;37.22;11.52;;;;;;;5.00;100.00;97625.19;5095039;27;20071;-48
2023/02/15 04:36:52;;;;;;;33.30;11.52;;;;;;;4.97;100.00;97621.91;5100741;27;20110;-51
2023/02/15 04:39:20;;;;;;;37.65;12.65;;;;;;;5.42;100.00;97620.34;5103286;27;20099;-48
2023/02/15 04:41:49;;;;;;;33.08;10.82;;;;;;;5.75;100.00;97617.66;5102473;27;20083;-51
2023/02/15 04:44:17;;;;;;;41.83;11.43;;;;;;;5.14;100.00;97621.84;5104096;27;20087;-45
2023/02/15 04:46:45;;;;;;;24.65;11.85;;;;;;;5.51;100.00;97624.25;5103790;27;20071;-45
2023/02/15 04:49:13;;;;;;;39.20;12.30;;;;;;;5.46;100.00;97614.84;5097818;27;20072;-45
2023/02/15 04:51:42;;;;;;;43.10;13.15;;;;;;;5.13;100.00;97621.94;5093504;27;20559;-48
2023/02/15 04:54:11;;;;;;;37.38;13.77;;;;;;;4.88;100.00;97620.63;5110014;27;20079;-44
2023/02/15 04:56:40;;;;;;;42.42;14.35;;;;;;;4.94;100.00;97627.28;5094552;27;20080;-51
2023/02/15 04:59:10;;;;;;;55.85;13.75;;;;;;;4.80;100.00;97624.56;5094233;27;20086;-46
2023/02/15 05:01:38;;;;;;;44.83;13.63;;;;;;;5.14;100.00;97623.63;5096092;27;20052;-50
2023/02/15 05:04:07;;;;;;;51.53;13.93;;;;;;;4.65;100.00;97623.59;5093994;27;20079;-48
2023/02/15 05:06:35;;;;;;;67.53;14.50;;;;;;;4.14;100.00;97623.56;5096863;27;20084;-48
2023/02/15 05:09:04;;;;;;;69.28;13.98;;;;;;;3.51;100.00;97621.38;5100441;27;20083;-48
2023/02/15 05:11:34;;;;;;;72.45;13.43;;;;;;;4.44;100.00;97617.69;5094680;27;20496;-46
2023/02/15 05:14:02;;;;;;;91.18;14.98;;;;;;;3.93;100.00;97625.44;5099441;27;20524;-51
2023/02/15 05:16:30;;;;;;;44.03;13.40;;;;;;;5.07;100.00;97632.72;5099921;27;20589;-48
2023/02/15 05:18:59;;;;;;;77.63;14.18;;;;;;;4.79;100.00;97636.78;5095887;27;20496;-47
2023/02/15 05:21:27;;;;;;;59.58;13.32;;;;;;;4.91;100.00;97635.28;5099370;28;20467;-51
2023/02/15 05:23:55;;;;;;;41.35;12.48;;;;;;;4.95;100.00;97627.19;5096576;28;20084;-48
2023/02/15 05:29:12;;;;;;;61.03;13.85;;;;;;;4.89;100.00;97634.56;5103678;27;20090;-49
2023/02/15 05:31:40;;;;;;;44.30;13.50;;;;;;;5.39;100.00;97629.22;5102921;27;20071;-49
2023/02/15 05:34:09;;;;;;;56.67;13.43;;;;;;;5.57;100.00;97619.50;5090955;27;20075;-45
2023/02/15 05:36:37;;;;;;;64.65;14.55;;;;;;;5.72;100.00;97623.06;5098060;27;20823;-50
2023/02/15 05:39:06;;;;;;;42.72;13.70;;;;;;;5.19;100.00;97630.28;5097925;27;20116;-50
2023/02/15 05:41:35;;;;;;;54.75;13.05;;;;;;;4.60;100.00;97629.03;5099907;27;20079;-52
2023/02/15 05:44:03;;;;;;;57.67;13.23;;;;;;;4.53;100.00;97641.56;5099202;27;20079;-51
2023/02/15 05:46:32;;;;;;;39.42;11.13;;;;;;;5.12;100.00;97635.94;5097419;27;20126;-50
2023/02/15 05:49:01;;;;;;;51.37;13.30;;;;;;;5.31;100.00;97639.25;5101748;27;20091;-51
2023/02/15 05:51:29;;;;;;;30.60;12.60;;;;;;;5.17;100.00;97637.38;5103108;28;20493;-46
2023/02/15 05:53:57;;;;;;;51.20;12.25;;;;;;;4.61;100.00;97633.38;5101635;27;20083;-51
2023/02/15 05:56:25;;;;;;;46.08;12.43;;;;;;;4.48;100.00;97640.97;5103524;27;20086;-49
2023/02/15 05:58:54;;;;;;;50.58;12.15;;;;;;;4.57;100.00;97646.66;5095690;28;20125;-52
2023/02/15 06:01:23;;;;;;;44.25;13.13;;;;;;;4.17;100.00;97649.50;5095752;27;20083;-47
2023/02/15 06:03:53;;;;;;;44.65;12.20;;;;;;;4.60;100.00;97647.34;5100064;27;20474;-50
2023/02/15 06:06:22;;;;;;;43.08;11.68;;;;;;;4.60;100.00;97652.56;5094129;27;20087;-47
2023/02/15 06:08:50;;;;;;;52.50;12.15;;;;;;;5.17;100.00;97644.38;5104551;27;20083;-50
2023/02/15 06:11:18;;;;;;;43.40;12.77;;;;;;;4.78;100.00;97644.69;5096068;28;20086;-46
2023/02/15 06:13:47;;;;;;;65.10;12.75;;;;;;;4.37;100.00;97652.88;5094067;27;20075;-46
2023/02/15 06:16:15;;;;;;;62.58;15.65;;;;;;;4.86;100.00;97643.38;5092961;28;20071;-48
2023/02/15 06:18:44;;;;;;;61.42;13.35;;;;;;;4.43;100.00;97639.50;5101924;27;20482;-51
2023/02/15 06:21:14;;;;;;;60.10;14.00;;;;;;;4.34;100.00;97645.22;5094197;27;20103;-46
2023/02/15 06:23:42;;;;;;;55.58;14.10;;;;;;;5.21;100.00;97640.66;5098957;27;20620;-46
2023/02/15 06:26:11;;;;;;;63.70;14.45;;;;;;;4.32;100.00;97645.28;5100558;27;20098;-47
2023/02/15 06:28:40;;;;;;;62.10;16.08;;;;;;;4.66;100.00;97652.25;5093676;27;20644;-49
2023/02/15 06:31:09;;;;;;;34.27;13.97;;;;;;;4.00;100.00;97663.38;5097003;27;20087;-47
2023/02/15 06:33:38;;;;;;;66.35;15.50;;;;;;;4.22;100.00;97651.88;5095999;27;21086;-50
2023/02/15 06:36:07;;;;;;;40.30;15.32;;;;;;;4.39;100.00;97651.03;5099307;27;20090;-49
2023/02/15 06:38:36;;;;;;;40.63;14.43;;;;;;;4.27;100.00;97661.19;5101091;27;20068;-48
2023/02/15 06:41:05;;;;;;;58.67;16.83;;;;;;;4.59;100.00;97657.88;5096544;27;20075;-46
2023/02/15 06:43:33;;;;;;;49.38;14.05;;;;;;;4.80;100.00;97666.38;5094622;27;20080;-48
2023/02/15 06:46:02;;;;;;;40.92;13.45;;;;;;;4.68;100.00;97665.22;5092045;27;20094;-50
2023/02/15 06:48:30;;;;;;;49.92;13.50;;;;;;;5.07;100.00;97671.94;5091346;28;20097;-51
2023/02/15 06:50:59;;;;;;;48.70;14.50;;;;;;;4.87;100.00;97670.38;5093406;28;20082;-47
2023/02/15 06:53:27;;;;;;;54.63;14.20;;;;;;;5.17;100.00;97665.31;5100174;27;20082;-52
2023/02/15 06:56:06;;;;;;;67.40;16.00;;;;;;;5.09;100.00;97663.06;5093416;28;20114;-45
2023/02/15 06:58:34;;;;;;;39.08;13.50;;;;;;;5.21;100.00;97662.44;5092264;28;20083;-46
2023/02/15 07:01:02;;;;;;;51.40;13.68;;;;;;;5.12;100.00;97662.91;5090901;28;20084;-48
2023/02/15 07:03:31;;;;;;;40.75;14.13;;;;;;;5.13;100.00;97671.63;5092794;28;20518;-47
2023/02/15 07:06:01;;;;;;;42.80;14.10;;;;;;;5.74;100.00;97657.81;5092388;28;20468;-43
2023/02/15 07:08:30;;;;;;;53.35;14.57;;;;;;;4.62;100.00;97669.00;5094043;28;20107;-45
2023/02/15 07:12:40;;;;;;;56.97;13.35;;;;;;;4.89;100.00;97671.97;5096433;28;20085;-45
2023/02/15 07:13:47;;;;;;;47.63;14.75;;;;;;;4.21;100.00;97665.88;5094317;28;20080;-45
2023/02/15 07:16:16;;;;;;;39.60;12.60;;;;;;;4.57;100.00;97663.16;5096959;28;20090;-48
2023/02/15 07:18:44;;;;;;;42.65;12.13;;;;;;;4.52;100.00;97666.03;5094073;28;20094;-54
2023/02/15 07:21:12;;;;;;;47.63;13.15;;;;;;;4.70;100.00;97672.06;5094819;28;20079;-47
2023/02/15 07:23:41;;;;;;;37.25;12.32;;;;;;;5.63;100.00;97654.97;5094430;28;20469;-47
2023/02/15 07:26:09;;;;;;;45.92;12.75;;;;;;;5.41;100.00;97665.75;5101753;27;20086;-50
2023/02/15 07:28:37;;;;;;;36.80;15.25;;;;;;;5.26;100.00;97663.97;5090167;28;20421;-48
2023/02/15 07:31:07;;;;;;;59.55;15.55;;;;;;;4.72;100.00;97667.63;5093687;28;20188;-49
2023/02/15 07:33:36;;;;;;;58.70;14.97;;;;;;;4.58;100.00;97654.44;5096066;28;20079;-50
2023/02/15 07:36:05;;;;;;;58.78;14.85;;;;;;;4.18;100.00;97659.03;5090478;28;20086;-49
2023/02/15 07:38:35;;;;;;;44.10;14.68;;;;;;;4.08;100.00;97664.78;5091616;28;20092;-49
2023/02/15 07:41:05;;;;;;;51.65;14.25;;;;;;;3.88;100.00;97655.28;5092209;28;20110;-49
2023/02/15 07:43:35;;;;;;;28.98;12.38;;;;;;;4.59;100.00;97661.34;5089931;28;20087;-49
2023/02/15 07:46:04;;;;;;;45.90;11.65;;;;;;;5.04;100.00;97653.81;5094921;28;20071;-47
2023/02/15 07:48:34;;;;;;;43.85;14.68;;;;;;;4.82;100.00;97661.91;5102740;27;20071;-53
2023/02/15 07:51:04;;;;;;;48.40;13.35;;;;;;;4.68;100.00;97660.00;5101312;27;20091;-51
2023/02/15 07:53:33;;;;;;;33.72;12.30;;;;;;;4.42;100.00;97658.72;5102588;27;20302;-44
2023/02/15 07:56:01;;;;;;;32.95;11.85;;;;;;;4.58;100.00;97656.19;5097205;28;20071;-44
2023/02/15 08:01:12;;;;;;;31.77;12.98;;;;;;;5.47;100.00;97647.97;5098661;28;20082;-53
2023/02/15 08:03:42;;;;;;;27.38;11.15;;;;;;;6.17;100.00;97645.81;5094106;28;20076;-55
2023/02/15 08:06:11;;;;;;;37.22;14.30;;;;;;;5.43;100.00;97656.03;5095078;27;20071;-48
2023/02/15 08:08:40;;;;;;;57.53;13.00;;;;;;;4.46;100.00;97655.88;5098787;27;20074;-51
2023/02/15 08:14:00;;;;;;;39.15;11.50;;;;;;;4.46;100.00;97648.03;5096887;27;20075;-46
2023/02/15 08:16:30;;;;;;;32.03;11.07;;;;;;;5.21;100.00;97648.53;5096181;27;20071;-51
2023/02/15 08:19:02;;;;;;;29.00;10.70;;;;;;;5.30;100.00;97645.41;5096243;27;20463;-47
2023/02/15 08:21:32;;;;;;;27.45;12.80;;;;;;;5.77;100.00;97646.34;5106560;27;20059;-43
2023/02/15 08:24:00;;;;;;;23.63;12.13;;;;;;;4.43;100.00;97650.81;5097435;27;20072;-48
2023/02/15 08:26:30;;;;;;;35.55;13.15;;;;;;;4.27;100.00;97655.97;5098625;27;20071;-47
2023/02/15 08:28:59;;;;;;;41.90;13.02;;;;;;;4.52;100.00;97660.78;5096642;28;20095;-56
2023/02/15 08:31:28;;;;;;;26.70;12.05;;;;;;;4.32;100.00;97652.28;5099387;27;20060;-52
2023/02/15 08:33:57;;;;;;;30.67;13.00;;;;;;;5.21;100.00;97651.13;5096607;27;20519;-46
2023/02/15 08:36:28;;;;;;;27.17;12.05;;;;;;;5.99;100.00;97644.25;5095703;27;20078;-46
2023/02/15 08:38:59;;;;;;;47.70;15.25;;;;;;;5.56;100.00;97645.75;5101554;27;20071;-51
2023/02/15 08:41:27;;;;;;;;;;;;;;;6.45;100.00;97640.75;5093883;27;20094;-46
2023/02/15 08:43:56;;;;;;;48.53;12.88;;;;;;;5.41;100.00;97647.44;5104902;27;19959;-47
2023/02/15 08:46:26;;;;;;;21.42;11.50;;;;;;;6.51;100.00;97630.75;5095547;27;20455;-54
2023/02/15 08:48:55;;;;;;;41.05;11.65;;;;;;;5.26;100.00;97643.88;5096767;27;20094;-50
2023/02/15 08:51:25;;;;;;;39.47;9.85;;;;;;;5.06;100.00;97644.09;5095790;27;20102;-53
2023/02/15 08:53:56;;;;;;;35.72;11.70;;;;;;;5.14;100.00;97639.31;5094471;27;20138;-47
2023/02/15 08:56:26;;;;;;;40.65;12.30;;;;;;;5.84;100.00;97638.06;5098415;27;20463;-47
2023/02/15 08:58:55;;;;;;;33.05;11.82;;;;;;;5.58;100.00;97630.84;5095217;27;20487;-49
2023/02/15 09:01:25;;;;;;;40.38;12.30;;;;;;;4.86;100.00;97648.63;5091456;27;20082;-46
2023/02/15 09:03:57;;;;;;;27.10;9.98;;;;;;;5.76;100.00;97637.66;5093782;27;20068;-49
2023/02/15 09:06:26;;;;;;;34.45;9.90;;;;;;;5.83;100.00;97641.59;5096848;27;20079;-50
2023/02/15 09:08:57;;;;;;;39.80;10.68;;;;;;;6.89;100.00;97638.94;5102065;27;20073;-45
2023/02/15 09:11:27;;;;;;;22.77;10.70;;;;;;;6.84;100.00;97632.28;5093330;27;20087;-48
2023/02/15 09:13:57;;;;;;;18.80;9.88;;;;;;;7.24;100.00;97635.94;5100992;27;20078;-45
2023/02/15 09:16:26;;;;;;;31.83;11.60;;;;;;;6.52;100.00;97642.91;5095297;28;20075;-51
2023/02/15 09:18:57;;;;;;;31.70;10.97;;;;;;;6.41;100.00;97642.72;5096349;27;20079;-53
2023/02/15 09:21:26;;;;;;;20.58;10.18;;;;;;;6.52;100.00;97640.28;5095443;27;20075;-49
2023/02/15 09:23:59;;;;;;;26.27;10.40;;;;;;;6.27;100.00;97640.03;5095610;27;20095;-51
2023/02/15 09:26:29;;;;;;;20.70;10.25;;;;;;;6.41;100.00;97640.91;5100066;27;20550;-48
2023/02/15 09:29:00;;;;;;;39.75;12.43;;;;;;;5.83;100.00;97641.59;5099763;27;20532;-51
2023/02/15 09:31:30;;;;;;;23.05;11.00;;;;;;;6.22;100.00;97640.28;5091019;28;20084;-52
2023/02/15 09:34:01;;;;;;;33.28;11.43;;;;;;;5.38;100.00;97645.00;5105906;27;20074;-51
2023/02/15 09:36:31;;;;;;;30.85;13.00;;;;;;;5.48;100.00;97640.97;5096251;27;20672;-50
2023/02/15 09:39:05;;;;;;;24.65;11.23;;;;;;;6.11;100.00;97646.16;5106327;27;20133;-52
2023/02/15 09:42:09;;;;;;;30.48;11.82;;;;;;;6.68;100.00;97647.25;5100204;27;20099;-51
2023/02/15 09:44:53;;;;;;;55.20;12.55;;;;;;;5.64;100.00;97641.81;5094886;27;20091;-48
2023/02/15 09:47:45;;;;;;;21.17;11.23;;;;;;;7.16;100.00;97630.34;5098171;28;20279;-48
2023/02/15 09:50:17;;;;;;;16.58;9.75;;;;;;;7.72;100.00;97632.97;5109477;27;20482;-48
2023/02/15 09:52:56;;;;;;;36.15;10.40;;;;;;;6.24;100.00;97641.06;5103822;27;20087;-48
2023/02/15 09:55:47;;;;;;;21.00;11.15;;;;;;;7.52;100.00;97637.69;5101673;27;20078;-51
2023/02/15 09:58:17;;;;;;;;;;;;;;;6.41;100.00;97637.47;5092754;28;20143;-48
2023/02/15 10:00:51;;;;;;;29.60;11.20;;;;;;;6.16;100.00;97640.66;5102356;27;19967;-45
2023/02/15 10:03:33;;;;;;;14.60;10.10;;;;;;;7.03;100.00;97637.25;5100667;27;20095;-48
2023/02/15 10:06:16;;;;;;;21.77;12.27;;;;;;;6.89;100.00;97632.84;5100352;27;20071;-48
2023/02/15 10:08:55;;;;;;;25.08;11.27;;;;;;;6.02;100.00;97630.13;5106380;27;20078;-46
2023/02/15 10:11:42;;;;;;;28.95;12.13;;;;;;;6.27;100.00;97640.88;5104688;27;20085;-49
2023/02/15 10:14:37;;;;;;;22.52;11.55;;;;;;;6.08;100.00;97640.25;5095873;27;20083;-51
2023/02/15 10:17:15;;;;;;;31.58;12.82;;;;;;;5.96;100.00;97638.34;5098307;27;20071;-50
2023/02/15 10:19:49;;;;;;;21.00;12.65;;;;;;;6.93;100.00;97634.34;5097964;27;20087;-50
2023/02/15 10:22:25;;;;;;;33.00;14.25;;;;;;;5.84;100.00;97631.97;5102653;27;20076;-53
2023/02/15 10:25:11;;;;;;;23.90;14.70;;;;;;;6.02;100.00;97635.34;5099289;27;20075;-49
2023/02/15 10:27:46;;;;;;;24.30;13.27;;;;;;;6.52;100.00;97634.22;5104070;27;20102;-47
2023/02/15 10:30:16;;;;;;;26.65;14.85;;;;;;;7.83;100.00;97618.19;5101877;27;20087;-46
2023/02/15 10:32:59;;;;;;;22.47;14.93;;;;;;;7.80;100.00;97615.75;5110366;27;20089;-50
2023/02/15 10:35:34;;;;;;;22.48;13.98;;;;;;;8.41;100.00;97612.72;5099906;27;20072;-45
2023/02/15 10:38:21;;;;;;;18.85;13.50;;;;;;;7.84;100.00;97614.63;5100540;27;20078;-45
2023/02/15 10:40:59;;;;;;;21.88;13.48;;;;;;;8.89;100.00;97608.53;5111854;27;20078;-54
2023/02/15 10:43:42;;;;;;;20.60;12.77;;;;;;;7.68;100.00;97619.19;5109048;27;20067;-46
2023/02/15 10:46:18;;;;;;;19.45;12.80;;;;;;;7.35;100.00;97624.78;5097981;27;20092;-51
2023/02/15 10:49:12;;;;;;;26.05;12.80;;;;;;;7.78;100.00;97622.91;5100938;27;20146;-50
2023/02/15 10:51:49;;;;;;;22.00;11.68;;;;;;;7.63;100.00;97612.53;5094468;27;20550;-52
2023/02/15 10:54:25;;;;;;;26.80;13.18;;;;;;;7.82;100.00;97615.66;5103294;27;20075;-51
2023/02/15 10:56:59;;;;;;;21.55;12.43;;;;;;;8.87;100.00;97597.25;5095337;27;20091;-51
2023/02/15 10:59:42;;;;;;;20.55;12.25;;;;;;;7.58;100.00;97602.34;5098231;28;20072;-46
2023/02/15 11:02:19;;;;;;;19.67;10.77;;;;;;;8.68;100.00;97597.69;5097155;28;20671;-48
2023/02/15 11:04:58;;;;;;;19.02;12.07;;;;;;;9.30;100.00;97586.38;5094601;28;20086;-49
2023/02/15 11:07:29;;;;;;;25.25;12.43;;;;;;;8.28;100.00;97589.84;5097016;28;20075;-50
2023/02/15 11:10:02;;;;;;;23.70;12.25;;;;;;;8.95;100.00;97586.22;5099706;28;20090;-51
2023/02/15 11:12:32;;;;;;;18.05;11.82;;;;;;;9.26;100.00;97574.38;5100096;28;20091;-49
2023/02/15 11:15:05;;;;;;;25.23;12.97;;;;;;;8.32;100.00;97575.53;5102025;28;20090;-53
2023/02/15 11:17:36;;;;;;;31.08;12.23;;;;;;;9.22;93.35;97565.88;5104254;28;20079;-47
2023/02/15 11:20:13;;;;;;;19.95;13.13;;;;;;;8.45;100.00;97572.13;5102745;27;20084;-49
2023/02/15 11:22:41;;;;;;;32.88;13.07;;;;;;;9.12;100.00;97556.94;5109028;27;20091;-46
2023/02/15 11:25:18;;;;;;;25.65;12.57;;;;;;;8.78;100.00;97561.94;5104459;27;20121;-48
2023/02/15 11:27:48;;;;;;;24.77;13.35;;;;;;;8.74;100.00;97563.09;5103696;27;20500;-48
2023/02/15 11:30:22;;;;;;;21.30;12.35;;;;;;;8.40;100.00;97555.84;5105479;27;20095;-46
2023/02/15 11:32:54;;;;;;;20.00;12.63;;;;;;;9.12;100.00;97546.41;5101219;27;20098;-51
2023/02/15 11:35:27;;;;;;;24.45;14.13;;;;;;;9.72;99.92;97542.94;5103699;27;20110;-49
2023/02/15 11:37:59;;;;;;;18.83;12.48;;;;;;;9.33;100.00;97540.56;5102905;27;20101;-48
2023/02/15 11:40:29;;;;;;;22.40;13.43;;;;;;;8.82;100.00;97535.41;5110465;27;20090;-47
2023/02/15 11:43:01;;;;;;;26.52;14.13;;;;;;;8.59;100.00;97529.97;5094517;27;20079;-47
2023/02/15 11:45:32;;;;;;;29.35;16.75;;;;;;;8.45;100.00;97524.81;5099528;27;20071;-48
2023/02/15 11:48:00;;;;;;;31.88;14.30;;;;;;;8.64;100.00;97524.41;5094845;28;20079;-47
2023/02/15 11:50:31;;;;;;;34.05;14.50;;;;;;;9.71;99.35;97517.56;5097018;27;20508;-45
2023/02/15 11:53:02;;;;;;;23.45;14.88;;;;;;;9.77;100.00;97510.13;5096808;27;20075;-51
2023/02/15 11:55:30;;;;;;;25.17;17.83;;;;;;;9.92;98.47;97514.28;5099983;28;20095;-50
2023/02/15 11:58:03;;;;;;;23.95;14.68;;;;;;;9.27;100.00;97513.72;5098294;28;20079;-53
2023/02/15 12:00:36;;;;;;;22.88;14.75;;;;;;;10.05;100.00;97504.50;5099179;27;20084;-51